createdAt,value
2023-04-14T00:01:43.494Z,100823.88
2023-04-14T00:06:48.557Z,100831.91
2023-04-14T00:11:52.928Z,100840.34
2023-04-14T00:16:57.799Z,100835.69
2023-04-14T00:22:02.909Z,100826.06
2023-04-14T00:27:08.916Z,100829.63
2023-04-14T00:32:14.626Z,100830.50
2023-04-14T00:37:19.652Z,100844.78
2023-04-14T00:42:25.114Z,100850.09
2023-04-14T00:47:30.621Z,100865.72
2023-04-14T00:52:35.860Z,100863.63
2023-04-14T00:57:41.715Z,100845.34
2023-04-14T01:02:47.153Z,100854.59
2023-04-14T01:07:52.553Z,100863.47
2023-04-14T01:13:38.443Z,100868.22
2023-04-14T01:19:05.136Z,100863.31
2023-04-14T01:24:39.581Z,100896.25
2023-04-14T01:30:02.861Z,100869.94
2023-04-14T01:35:21.863Z,100878.53
2023-04-14T01:40:30.306Z,100865.72
2023-04-14T01:45:41.301Z,100869.53
2023-04-14T01:50:48.579Z,100863.81
2023-04-14T01:55:55.657Z,100866.28
2023-04-14T02:01:02.080Z,100878.25
2023-04-14T02:06:08.426Z,100873.94
2023-04-14T02:11:17.246Z,100882.81
2023-04-14T02:16:22.291Z,100846.66
2023-04-14T02:21:29.885Z,100845.97
2023-04-14T02:26:38.989Z,100847.16
2023-04-14T02:31:52.099Z,100840.59
2023-04-14T02:36:59.691Z,100853.31
2023-04-14T02:42:13.046Z,100875.25
2023-04-14T02:47:40.237Z,100850.16
2023-04-14T02:52:52.725Z,100847.59
2023-04-14T02:58:03.900Z,100846.00
2023-04-14T03:03:15.141Z,100827.97
2023-04-14T03:08:21.873Z,100825.88
2023-04-14T03:13:33.426Z,100840.03
2023-04-14T03:18:39.466Z,100832.81
2023-04-14T03:23:47.096Z,100802.69
2023-04-14T03:28:54.758Z,100802.84
2023-04-14T03:34:04.095Z,100802.97
2023-04-14T03:39:16.070Z,100789.56
2023-04-14T03:44:23.270Z,100783.00
2023-04-14T03:49:30.656Z,100793.78
2023-04-14T03:54:39.649Z,100799.78
2023-04-14T03:59:49.116Z,100768.84
2023-04-14T04:05:00.240Z,100764.66
2023-04-14T04:10:10.870Z,100741.94
2023-04-14T04:15:16.342Z,100732.47
2023-04-14T04:20:23.518Z,100715.06
2023-04-14T04:25:28.625Z,100702.91
2023-04-14T04:30:48.909Z,100742.38
2023-04-14T04:35:55.843Z,100691.94
2023-04-14T04:41:08.270Z,100676.41
2023-04-14T04:46:45.086Z,100672.91
2023-04-14T04:51:52.664Z,100678.19
2023-04-14T04:57:00.126Z,100668.03
2023-04-14T05:02:05.845Z,100665.41
2023-04-14T05:07:11.740Z,100640.25
2023-04-14T05:12:18.123Z,100627.56
2023-04-14T05:17:23.549Z,100615.94
2023-04-14T05:22:29.019Z,100611.91
2023-04-14T05:27:35.837Z,100606.22
2023-04-14T05:32:41.329Z,100635.19
2023-04-14T05:37:46.623Z,100583.59
2023-04-14T05:42:52.224Z,100578.44
2023-04-14T05:47:57.041Z,100565.00
2023-04-14T05:53:02.852Z,100583.06
2023-04-14T05:58:08.173Z,100539.03
2023-04-14T06:03:13.960Z,100534.88
2023-04-14T06:08:21.267Z,100534.47
2023-04-14T06:13:27.519Z,100526.84
2023-04-14T06:18:34.445Z,100508.72
2023-04-14T06:23:39.652Z,100502.66
2023-04-14T06:28:45.768Z,100500.34
2023-04-14T06:33:51.070Z,100489.94
2023-04-14T06:38:58.829Z,100471.88
2023-04-14T06:44:04.485Z,100468.97
2023-04-14T06:49:10.219Z,100472.25
2023-04-14T06:54:15.356Z,100461.03
2023-04-14T06:59:22.718Z,100449.09
2023-04-14T07:04:28.330Z,100438.50
2023-04-14T07:09:33.820Z,100438.13
2023-04-14T07:14:39.330Z,100410.50
2023-04-14T07:19:46.359Z,100401.69
2023-04-14T07:24:52.247Z,100400.72
2023-04-14T07:29:58.121Z,100389.13
2023-04-14T07:35:03.357Z,100388.47
2023-04-14T07:40:09.975Z,100381.47
2023-04-14T07:45:15.210Z,100373.63
2023-04-14T07:50:20.790Z,100369.19
2023-04-14T07:55:27.542Z,100362.53
2023-04-14T08:00:33.286Z,100373.78
2023-04-14T08:05:39.240Z,100387.84
2023-04-14T08:10:44.701Z,100346.50
2023-04-14T08:15:50.663Z,100351.25
2023-04-14T08:20:56.063Z,100360.72
2023-04-14T08:26:01.642Z,100353.59
2023-04-14T08:31:08.246Z,100354.22
2023-04-14T08:36:14.687Z,100364.16
2023-04-14T08:41:22.516Z,100356.13
2023-04-14T08:46:29.848Z,100366.41
2023-04-14T08:51:40.838Z,100346.53
2023-04-14T08:56:45.962Z,100344.00
2023-04-14T09:01:52.550Z,100356.13
2023-04-14T09:06:59.112Z,100367.25
2023-04-14T09:12:05.471Z,100353.75
2023-04-14T09:17:10.736Z,100351.66
2023-04-14T09:22:16.822Z,100353.44
2023-04-14T09:27:22.108Z,100364.78
2023-04-14T09:32:28.344Z,100391.06
2023-04-14T09:37:47.685Z,100383.72
2023-04-14T09:42:53.548Z,100370.97
2023-04-14T09:48:12.247Z,100370.94
2023-04-14T09:53:18.021Z,100387.41
2023-04-14T09:58:25.562Z,100384.66
2023-04-14T10:03:45.713Z,100392.81
2023-04-14T10:08:53.647Z,100393.81
2023-04-14T10:14:02.716Z,100395.72
2023-04-14T10:19:08.213Z,100396.03
2023-04-14T10:24:14.240Z,100408.94
2023-04-14T10:29:20.118Z,100409.31
2023-04-14T10:34:25.909Z,100432.88
2023-04-14T10:39:31.243Z,100419.34
2023-04-14T10:44:39.141Z,100415.22
2023-04-14T10:49:45.776Z,100431.41
2023-04-14T10:54:59.468Z,100447.16
2023-04-14T11:00:24.724Z,100483.31
2023-04-14T11:05:29.489Z,100461.72
2023-04-14T11:10:35.449Z,100466.72
2023-04-14T11:16:02.982Z,100475.84
2023-04-14T11:21:10.066Z,100484.72
2023-04-14T11:26:15.502Z,100504.78
2023-04-14T11:31:23.000Z,100514.09
2023-04-14T11:36:30.187Z,100523.41
2023-04-14T11:41:36.298Z,100515.59
2023-04-14T11:46:42.767Z,100514.78
2023-04-14T11:51:50.533Z,100558.66
2023-04-14T11:56:55.556Z,100540.50
2023-04-14T12:02:00.665Z,100552.88
2023-04-14T12:07:15.919Z,100566.88
2023-04-14T12:12:21.515Z,100583.34
2023-04-14T12:17:28.056Z,100577.78
2023-04-14T12:22:35.764Z,100575.72
2023-04-14T12:27:42.510Z,100585.81
2023-04-14T12:32:49.037Z,100595.03
2023-04-14T12:37:54.750Z,100599.97
2023-04-14T12:42:59.838Z,100595.66
2023-04-14T12:48:06.147Z,100596.25
2023-04-14T12:53:31.106Z,100615.56
2023-04-14T12:58:39.966Z,100602.78
2023-04-14T13:03:51.026Z,100602.56
2023-04-14T13:09:01.206Z,100596.53
2023-04-14T13:14:08.656Z,100596.75
2023-04-14T13:19:14.776Z,100588.09
2023-04-14T13:24:19.994Z,100593.59
2023-04-14T13:29:25.705Z,100591.91
2023-04-14T13:34:32.997Z,100598.25
2023-04-14T13:39:38.158Z,100593.28
2023-04-14T13:44:45.234Z,100585.00
2023-04-14T13:49:50.575Z,100582.28
2023-04-14T13:54:56.967Z,100568.91
2023-04-14T14:00:02.204Z,100566.41
2023-04-14T14:05:12.235Z,100563.06
2023-04-14T14:10:17.413Z,100544.53
2023-04-14T14:15:22.393Z,100549.41
2023-04-14T14:20:27.613Z,100539.06
2023-04-14T14:25:37.365Z,100535.72
2023-04-14T14:30:42.724Z,100538.13
2023-04-14T14:35:49.106Z,100536.13
2023-04-14T14:40:57.266Z,100526.81
2023-04-14T14:46:04.137Z,100528.34
2023-04-14T14:51:10.981Z,100557.81
2023-04-14T14:56:16.117Z,100541.88
2023-04-14T15:01:22.591Z,100525.19
2023-04-14T15:06:29.197Z,100518.31
2023-04-14T15:11:34.196Z,100518.16
2023-04-14T15:16:39.261Z,100506.72
2023-04-14T15:21:48.127Z,100508.00
2023-04-14T15:26:53.355Z,100499.06
2023-04-14T15:31:58.912Z,100522.28
2023-04-14T15:37:05.203Z,100507.59
2023-04-14T15:42:10.194Z,100500.28
2023-04-14T15:47:15.341Z,100487.69
2023-04-14T15:52:22.438Z,100499.63
2023-04-14T15:57:28.662Z,100541.78
2023-04-14T16:02:39.406Z,100528.13
2023-04-14T16:07:48.179Z,100474.38
2023-04-14T16:12:54.277Z,100482.94
2023-04-14T16:17:59.717Z,100479.75
2023-04-14T16:23:05.500Z,100464.84
2023-04-14T16:28:10.714Z,100476.03
2023-04-14T16:33:16.824Z,100487.91
2023-04-14T16:38:22.440Z,100456.28
2023-04-14T16:43:29.182Z,100481.94
2023-04-14T16:48:34.915Z,100440.19
2023-04-14T16:53:40.412Z,100426.63
2023-04-14T16:58:45.468Z,100433.94
2023-04-14T17:03:51.784Z,100415.25
2023-04-14T17:08:56.836Z,100421.31
2023-04-14T17:14:03.317Z,100445.88
2023-04-14T17:19:08.685Z,100420.59
2023-04-14T17:24:14.113Z,100411.34
2023-04-14T17:29:18.989Z,100412.03
2023-04-14T17:34:24.188Z,100406.63
2023-04-14T17:39:29.510Z,100398.97
2023-04-14T17:44:36.174Z,100387.91
2023-04-14T17:49:41.187Z,100382.00
2023-04-14T17:54:57.299Z,100367.31
2023-04-14T18:00:03.640Z,100361.91
2023-04-14T18:05:16.767Z,100356.13
2023-04-14T18:10:23.925Z,100357.00
2023-04-14T18:15:28.940Z,100353.22
2023-04-14T18:20:33.891Z,100350.44
2023-04-14T18:30:47.707Z,100342.91
2023-04-14T18:35:54.608Z,100335.09
2023-04-14T18:41:06.538Z,100330.59
2023-04-14T18:46:11.311Z,100324.25
2023-04-14T18:51:17.375Z,100312.78
2023-04-14T18:56:22.698Z,100303.47
2023-04-14T19:01:27.625Z,100302.59
2023-04-14T19:06:34.162Z,100308.06
2023-04-14T19:11:39.084Z,100279.75
2023-04-14T19:16:45.230Z,100280.75
2023-04-14T19:21:51.383Z,100278.03
2023-04-14T19:26:56.506Z,100274.22
2023-04-14T19:32:00.845Z,100268.44
2023-04-14T19:37:06.085Z,100269.59
2023-04-14T19:42:10.868Z,100263.03
2023-04-14T19:47:15.719Z,100253.41
2023-04-14T19:52:20.450Z,100237.31
2023-04-14T19:57:25.388Z,100242.34
2023-04-14T20:02:31.286Z,100265.06
2023-04-14T20:07:36.726Z,100240.56
2023-04-14T20:12:41.670Z,100241.56
2023-04-14T20:17:47.464Z,100230.44
2023-04-14T20:22:52.556Z,100222.50
2023-04-14T20:27:57.555Z,100240.75
2023-04-14T20:33:08.066Z,100219.88
2023-04-14T20:38:15.804Z,100213.31
2023-04-14T20:43:20.796Z,100217.47
2023-04-14T20:48:25.774Z,100215.19
2023-04-14T20:53:31.370Z,100203.13
2023-04-14T20:58:36.272Z,100206.13
2023-04-14T21:03:41.344Z,100215.41
2023-04-14T21:08:47.311Z,100195.22
2023-04-14T21:15:36.870Z,100219.75
2023-04-14T21:19:19.654Z,100200.91
2023-04-14T21:24:25.243Z,100213.13
2023-04-14T21:29:30.619Z,100222.69
2023-04-14T21:34:35.419Z,100214.44
2023-04-14T21:39:40.916Z,100190.81
2023-04-14T21:44:46.152Z,100189.97
2023-04-14T21:49:52.082Z,100196.63
2023-04-14T21:54:58.491Z,100215.00
2023-04-14T22:00:04.471Z,100183.38
2023-04-14T22:05:13.768Z,100194.31
2023-04-14T22:10:18.707Z,100197.59
2023-04-14T22:15:24.775Z,100200.06
2023-04-14T22:20:30.058Z,100200.91
2023-04-14T22:25:35.944Z,100207.16
2023-04-14T22:30:40.865Z,100219.06
2023-04-14T22:35:46.905Z,100219.84
2023-04-14T22:40:52.702Z,100221.59
2023-04-14T22:45:58.456Z,100224.19
2023-04-14T22:51:03.329Z,100235.09
2023-04-14T22:56:08.763Z,100228.25
2023-04-14T23:01:21.881Z,100228.38
2023-04-14T23:06:27.678Z,100226.03
2023-04-14T23:11:34.290Z,100218.19
2023-04-14T23:16:40.416Z,100212.00
2023-04-14T23:21:46.715Z,100202.97
2023-04-14T23:26:52.471Z,100204.53
2023-04-14T23:31:57.847Z,100196.19
2023-04-14T23:37:02.997Z,100187.47
2023-04-14T23:42:08.312Z,100190.50
2023-04-14T23:47:13.219Z,100189.22
2023-04-14T23:52:19.111Z,100190.25
2023-04-14T23:57:25.750Z,100193.06
